Time;durP1;ratioP1;P1;durP2;ratioP2;P2;SDS_P1;SDS_P2;PMS_P1;PMS_P2;Temp;Humidity;BMP_temperature;BMP_pressure;BME280_temperature;BME280_humidity;BME280_pressure;Samples;Min_cycle;Max_cycle;Signal;HPM_P1;HPM_P2
2023/05/20 00:00:52;;;;;;;14.98;6.03;;;;;;;;;;5052388;28;20045;-67
2023/05/20 00:03:21;;;;;;;17.52;6.20;;;12.00;99.90;;;;;;5052393;28;20436;-67
2023/05/20 00:05:47;;;;;;;9.07;5.20;;;11.90;99.90;;;;;;5035512;28;20045;-67
2023/05/20 00:08:13;;;;;;;11.70;5.57;;;12.00;99.90;;;;;;5053474;28;20041;-67
2023/05/20 00:10:40;;;;;;;16.85;5.95;;;;;;;;;;5053742;28;20037;-66
2023/05/20 00:13:06;;;;;;;15.98;7.40;;;11.90;99.90;;;;;;5052290;28;20377;-67
2023/05/20 00:15:32;;;;;;;16.30;7.97;;;12.00;99.90;;;;;;5053604;28;20040;-66
2023/05/20 00:17:59;;;;;;;23.42;6.60;;;11.90;99.90;;;;;;5071920;28;20045;-67
2023/05/20 00:20:25;;;;;;;12.65;6.18;;;;;;;;;;5073180;28;20037;-66
2023/05/20 00:22:51;;;;;;;14.07;6.10;;;;;;;;;;5071924;28;20051;-67
2023/05/20 00:25:17;;;;;;;14.73;6.43;;;;;;;;;;5073393;28;20548;-66
2023/05/20 00:27:43;;;;;;;15.48;6.25;;;11.90;99.90;;;;;;5071922;28;20132;-67
2023/05/20 00:30:09;;;;;;;17.67;6.03;;;12.00;99.90;;;;;;5072010;28;20033;-66
2023/05/20 00:32:35;;;;;;;17.90;6.82;;;11.90;99.90;;;;;;5073021;28;20032;-67
2023/05/20 00:35:02;;;;;;;15.07;6.65;;;11.80;99.90;;;;;;5070574;28;20100;-68
2023/05/20 00:37:28;;;;;;;13.30;5.32;;;;;;;;;;5074861;28;20040;-67
2023/05/20 00:39:54;;;;;;;14.52;5.68;;;;;;;;;;5073300;28;20044;-67
2023/05/20 00:42:27;;;;;;;13.90;6.88;;;11.90;99.90;;;;;;5055885;28;20105;-67
2023/05/20 00:44:54;;;;;;;13.05;5.72;;;11.80;99.90;;;;;;5055297;28;20040;-67
2023/05/20 00:47:25;;;;;;;17.48;6.30;;;11.90;99.90;;;;;;5071314;28;20120;-67
2023/05/20 00:49:51;;;;;;;18.52;6.13;;;11.70;99.90;;;;;;5073231;28;20068;-66
2023/05/20 00:52:18;;;;;;;12.70;5.75;;;12.00;99.90;;;;;;5069598;28;20079;-67
2023/05/20 00:54:44;;;;;;;12.52;6.00;;;11.60;99.90;;;;;;5071902;28;20036;-66
2023/05/20 00:57:10;;;;;;;11.82;5.63;;;11.60;99.90;;;;;;5072718;28;20037;-66
2023/05/20 00:59:37;;;;;;;17.55;6.10;;;11.70;99.90;;;;;;5065818;28;20401;-67
2023/05/20 01:02:06;;;;;;;12.20;5.55;;;11.60;99.90;;;;;;5051836;28;20090;-67
2023/05/20 01:04:32;;;;;;;15.23;6.20;;;11.70;99.90;;;;;;5051143;28;20041;-67
2023/05/20 01:07:04;;;;;;;15.90;5.97;;;11.60;99.90;;;;;;5053392;28;20044;-67
2023/05/20 01:09:31;;;;;;;16.45;7.88;;;11.70;99.90;;;;;;5051263;28;20480;-66
2023/05/20 01:12:16;;;;;;;16.10;6.28;;;11.60;99.90;;;;;;5050897;28;20044;-66
2023/05/20 01:14:55;;;;;;;20.98;6.70;;;11.80;99.90;;;;;;5052446;28;20068;-67
2023/05/20 01:17:25;;;;;;;16.00;5.95;;;11.70;99.90;;;;;;5051098;28;20106;-67
2023/05/20 01:19:53;;;;;;;14.55;6.47;;;11.50;99.90;;;;;;5051169;28;20531;-67
2023/05/20 01:22:26;;;;;;;12.43;5.80;;;11.70;99.90;;;;;;5052155;28;20045;-67
2023/05/20 01:24:52;;;;;;;15.00;6.38;;;11.60;99.90;;;;;;5052069;28;20041;-67
2023/05/20 01:27:19;;;;;;;14.27;6.32;;;11.60;99.90;;;;;;5051871;28;20118;-67
2023/05/20 01:29:49;;;;;;;12.60;5.68;;;11.60;99.90;;;;;;5050941;28;20094;-67
2023/05/20 01:32:19;;;;;;;15.18;6.65;;;11.50;99.90;;;;;;5051933;28;20087;-67
2023/05/20 01:34:48;;;;;;;13.82;6.50;;;11.40;99.90;;;;;;5052131;28;20072;-67
2023/05/20 01:37:15;;;;;;;14.15;6.25;;;11.50;99.90;;;;;;5051989;28;20044;-67
2023/05/20 01:39:41;;;;;;;14.68;6.20;;;11.50;99.90;;;;;;5054080;28;20045;-67
2023/05/20 01:42:09;;;;;;;14.57;6.20;;;11.40;99.90;;;;;;5065191;28;20159;-67
2023/05/20 01:44:34;;;;;;;16.13;6.45;;;11.50;99.90;;;;;;5052642;28;20124;-67
2023/05/20 01:47:00;;;;;;;14.77;7.13;;;11.40;99.90;;;;;;5050531;28;20068;-67
2023/05/20 01:49:26;;;;;;;20.33;7.25;;;11.30;99.90;;;;;;5050669;28;20532;-66
2023/05/20 01:51:52;;;;;;;18.15;6.85;;;;;;;;;;5050280;28;20094;-67
2023/05/20 01:54:18;;;;;;;20.15;6.60;;;;;;;;;;5051061;28;20036;-67
2023/05/20 01:56:45;;;;;;;11.63;6.45;;;11.40;99.90;;;;;;5051900;28;20068;-66
2023/05/20 01:59:11;;;;;;;15.93;7.07;;;11.30;99.90;;;;;;5051718;28;20119;-67
2023/05/20 02:01:37;;;;;;;21.58;6.80;;;11.10;99.90;;;;;;5051369;28;20107;-66
2023/05/20 02:04:02;;;;;;;15.50;6.70;;;11.20;99.90;;;;;;5051723;28;20060;-66
2023/05/20 02:06:28;;;;;;;13.23;5.80;;;;;;;;;;5051525;28;20037;-67
2023/05/20 02:08:54;;;;;;;17.30;7.80;;;;;;;;;;5051343;28;20057;-66
2023/05/20 02:11:21;;;;;;;14.38;6.65;;;;;;;;;;5051324;28;20420;-67
2023/05/20 02:13:47;;;;;;;13.57;6.00;;;;;;;;;;5051543;28;20116;-67
2023/05/20 02:16:13;;;;;;;12.50;6.43;;;;;;;;;;5051590;28;20532;-66
2023/05/20 02:18:38;;;;;;;13.85;6.82;;;11.20;99.90;;;;;;5067539;28;20137;-67
2023/05/20 02:21:04;;;;;;;21.27;7.03;;;11.10;99.90;;;;;;5071449;28;20488;-67
2023/05/20 02:23:30;;;;;;;13.23;6.28;;;11.20;99.90;;;;;;5070015;28;20099;-67
2023/05/20 02:25:56;;;;;;;13.38;7.22;;;11.10;99.90;;;;;;5070119;28;20047;-66
2023/05/20 02:28:22;;;;;;;15.05;6.72;;;;;;;;;;5070010;28;20045;-66
2023/05/20 02:30:50;;;;;;;20.27;7.68;;;;;;;;;;5070432;28;20048;-66
2023/05/20 02:33:16;;;;;;;12.75;6.38;;;11.10;99.90;;;;;;5071227;28;20041;-67
2023/05/20 02:35:42;;;;;;;18.73;6.80;;;;;;;;;;5050611;28;20044;-66
2023/05/20 02:38:08;;;;;;;15.88;6.05;;;;;;;;;;5051253;28;20409;-67
2023/05/20 02:40:33;;;;;;;14.25;6.20;;;11.20;99.90;;;;;;5051312;28;20036;-66
2023/05/20 02:43:00;;;;;;;19.42;6.90;;;11.10;99.90;;;;;;5051165;28;20041;-66
2023/05/20 02:45:26;;;;;;;14.88;7.63;;;;;;;;;;5051359;28;20044;-67
2023/05/20 02:47:51;;;;;;;11.80;5.75;;;11.00;99.90;;;;;;5051271;28;20095;-67
2023/05/20 02:50:17;;;;;;;15.23;6.68;;;10.90;99.90;;;;;;5051316;28;20492;-67
2023/05/20 02:52:44;;;;;;;17.35;7.35;;;;;;;;;;5050937;28;20044;-67
2023/05/20 02:55:10;;;;;;;11.95;6.82;;;11.10;99.90;;;;;;5050002;28;20505;-67
2023/05/20 02:57:39;;;;;;;19.67;7.18;;;10.90;99.90;;;;;;5051313;28;20041;-67
2023/05/20 03:00:09;;;;;;;12.23;6.65;;;11.00;99.90;;;;;;5051115;28;20060;-66
2023/05/20 03:02:36;;;;;;;10.15;6.15;;;;;;;;;;5049483;28;20041;-66
2023/05/20 03:05:04;;;;;;;12.23;7.30;;;11.10;99.90;;;;;;5049665;28;20045;-67
2023/05/20 03:07:30;;;;;;;11.95;5.93;;;11.00;99.90;;;;;;5065325;28;20109;-67
2023/05/20 03:09:57;;;;;;;11.63;5.97;;;11.00;99.90;;;;;;5073530;28;20045;-67
2023/05/20 03:12:25;;;;;;;11.40;6.47;;;;;;;;;;5074462;28;20040;-66
2023/05/20 03:14:54;;;;;;;9.55;5.68;;;11.10;99.90;;;;;;5074757;28;20041;-67
2023/05/20 03:17:20;;;;;;;10.68;6.07;;;;;;;;;;5073332;28;20071;-66
2023/05/20 03:19:46;;;;;;;11.68;6.18;;;;;;;;;;5073296;28;20042;-67
2023/05/20 03:22:12;;;;;;;14.98;6.72;;;11.00;99.90;;;;;;5072991;28;20705;-67
2023/05/20 03:24:37;;;;;;;14.93;6.72;;;10.80;99.90;;;;;;5063288;28;20037;-67
2023/05/20 03:27:03;;;;;;;13.77;6.18;;;10.80;99.90;;;;;;5053379;28;20493;-67
2023/05/20 03:29:30;;;;;;;15.65;6.78;;;11.00;99.90;;;;;;5053445;28;20037;-66
2023/05/20 03:31:55;;;;;;;13.50;6.97;;;11.00;99.90;;;;;;5059512;28;20054;-67
2023/05/20 03:34:21;;;;;;;11.48;5.80;;;;;;;;;;5073965;28;20484;-67
2023/05/20 03:36:47;;;;;;;11.45;6.63;;;;;;;;;;5074432;28;20044;-67
2023/05/20 03:39:13;;;;;;;16.27;6.90;;;;;;;;;;5072993;28;20510;-67
2023/05/20 03:41:39;;;;;;;10.55;6.40;;;;;;;;;;5072354;28;20123;-66
2023/05/20 03:44:05;;;;;;;12.85;7.18;;;;;;;;;;5074321;28;20044;-66
2023/05/20 03:46:33;;;;;;;10.35;6.63;;;;;;;;;;5072827;28;20581;-67
2023/05/20 03:49:00;;;;;;;10.57;5.68;;;10.90;99.90;;;;;;5072877;28;20052;-67
2023/05/20 03:51:26;;;;;;;11.90;6.00;;;;;;;;;;5072525;28;20036;-66
2023/05/20 03:53:52;;;;;;;10.68;5.80;;;10.90;99.90;;;;;;5073076;28;20408;-66
2023/05/20 03:56:18;;;;;;;11.15;5.47;;;;;;;;;;5073900;28;20035;-66
2023/05/20 03:58:44;;;;;;;9.02;5.38;;;;;;;;;;5072254;28;20124;-67
2023/05/20 04:01:13;;;;;;;10.07;5.30;;;;;;;;;;5072457;28;20127;-66
2023/05/20 04:03:40;;;;;;;9.40;4.68;;;11.00;99.90;;;;;;5072649;28;20450;-67
2023/05/20 04:06:06;;;;;;;8.85;4.75;;;;;;;;;;5073833;28;20093;-67
2023/05/20 04:08:35;;;;;;;8.52;4.55;;;;;;;;;;5073865;28;20036;-67
2023/05/20 04:11:01;;;;;;;11.82;5.82;;;11.10;99.90;;;;;;5073657;28;20048;-66
2023/05/20 04:13:27;;;;;;;10.57;5.53;;;11.00;99.90;;;;;;5072184;28;20068;-67
2023/05/20 04:15:53;;;;;;;8.38;4.60;;;;;;;;;;5073422;28;20067;-66
2023/05/20 04:18:19;;;;;;;11.40;5.65;;;;;;;;;;5069785;28;20047;-67
2023/05/20 04:20:45;;;;;;;12.68;5.03;;;11.00;99.90;;;;;;5073586;28;20045;-67
2023/05/20 04:23:11;;;;;;;10.75;4.35;;;;;;;;;;5072934;28;20067;-67
2023/05/20 04:25:40;;;;;;;7.10;4.47;;;;;;;;;;5072334;28;20083;-66
2023/05/20 04:28:05;;;;;;;10.77;4.22;;;11.10;99.90;;;;;;5073353;28;20416;-66
2023/05/20 04:30:32;;;;;;;9.98;4.18;;;;;;;;;;5073286;28;20033;-67
2023/05/20 04:33:01;;;;;;;8.35;3.95;;;11.00;99.90;;;;;;5072000;28;20044;-67
2023/05/20 04:35:27;;;;;;;5.40;3.58;;;11.40;99.90;;;;;;5070004;28;20079;-67
2023/05/20 04:37:54;;;;;;;8.48;3.80;;;11.30;99.90;;;;;;5055034;28;20068;-67
2023/05/20 04:40:20;;;;;;;10.07;3.55;;;;;;;;;;5057892;28;20696;-67
2023/05/20 04:42:46;;;;;;;6.70;3.80;;;;;;;;;;5052487;28;20068;-67
2023/05/20 04:45:12;;;;;;;6.10;3.97;;;11.50;99.90;;;;;;5051634;28;20405;-68
2023/05/20 04:47:38;;;;;;;10.00;4.55;;;11.30;99.90;;;;;;5051832;28;20037;-67
2023/05/20 04:50:12;;;;;;;6.82;3.92;;;11.30;99.90;;;;;;5051965;28;20044;-67
2023/05/20 04:52:38;;;;;;;5.93;3.95;;;11.50;99.90;;;;;;5053886;28;20041;-67
2023/05/20 04:55:09;;;;;;;6.60;4.20;;;11.50;99.90;;;;;;5051563;28;20037;-67
2023/05/20 04:57:37;;;;;;;6.50;4.18;;;;;;;;;;5051407;28;20045;-67
2023/05/20 05:00:06;;;;;;;11.00;4.82;;;;;;;;;;5052409;28;20052;-67
2023/05/20 05:02:31;;;;;;;8.93;3.90;;;11.60;99.90;;;;;;5052063;28;20064;-67
2023/05/20 05:04:57;;;;;;;6.38;3.40;;;11.60;99.90;;;;;;5052441;28;20045;-66
2023/05/20 05:07:23;;;;;;;7.65;3.83;;;11.60;99.90;;;;;;5052290;28;20519;-67
2023/05/20 05:09:49;;;;;;;5.80;3.35;;;;;;;;;;5052533;28;20090;-67
2023/05/20 05:12:14;;;;;;;12.05;3.35;;;11.60;99.90;;;;;;5067258;28;20571;-67
2023/05/20 05:14:40;;;;;;;9.52;3.85;;;11.70;99.90;;;;;;5072652;28;20037;-67
2023/05/20 05:17:06;;;;;;;6.10;3.03;;;;;;;;;;5071074;28;20538;-67
2023/05/20 05:19:32;;;;;;;6.28;3.08;;;;;;;;;;5067801;28;20055;-67
2023/05/20 05:21:58;;;;;;;5.80;3.20;;;;;;;;;;5045792;28;20511;-67
2023/05/20 05:24:23;;;;;;;6.40;3.13;;;12.20;99.90;;;;;;5062560;28;20076;-67
2023/05/20 05:26:55;;;;;;;5.68;3.72;;;12.10;99.90;;;;;;5060700;28;20523;-67
2023/05/20 05:29:21;;;;;;;6.25;3.45;;;12.20;99.90;;;;;;5059480;28;20033;-67
2023/05/20 05:31:47;;;;;;;6.95;3.72;;;;;;;;;;5060289;28;20471;-67
2023/05/20 05:34:13;;;;;;;4.35;3.00;;;;;;;;;;5059687;28;20039;-67
2023/05/20 05:36:39;;;;;;;4.72;3.35;;;12.30;99.90;;;;;;5062648;28;20102;-67
2023/05/20 05:39:05;;;;;;;7.18;3.05;;;12.60;99.90;;;;;;5061306;28;20047;-67
2023/05/20 05:41:31;;;;;;;7.22;3.75;;;12.50;99.90;;;;;;5061507;28;20036;-67
2023/05/20 05:43:58;;;;;;;5.35;2.85;;;;;;;;;;5061384;28;20059;-67
2023/05/20 05:46:24;;;;;;;3.63;2.33;;;;;;;;;;5060361;28;20051;-67
2023/05/20 05:48:50;;;;;;;5.85;2.78;;;12.80;99.90;;;;;;5059388;28;20044;-67
2023/05/20 05:51:16;;;;;;;5.20;2.55;;;;;;;;;;5062385;28;20074;-67
2023/05/20 05:53:42;;;;;;;4.45;2.35;;;;;;;;;;5065083;28;20041;-67
2023/05/20 05:56:08;;;;;;;4.88;2.33;;;12.90;99.90;;;;;;5069954;28;20052;-67
2023/05/20 05:58:34;;;;;;;4.90;2.30;;;;;;;;;;5072024;28;20135;-67
2023/05/20 06:01:00;;;;;;;4.05;2.22;;;12.80;99.90;;;;;;5071079;28;20044;-68
2023/05/20 06:03:28;;;;;;;3.42;2.50;;;;;;;;;;5056801;28;20045;-67
2023/05/20 06:05:54;;;;;;;6.78;2.92;;;;;;;;;;5060521;28;20219;-70
2023/05/20 06:08:20;;;;;;;6.22;2.78;;;;;;;;;;5059991;28;20098;-67
2023/05/20 06:10:49;;;;;;;7.03;2.50;;;12.90;99.90;;;;;;5068158;28;20504;-67
2023/05/20 06:13:16;;;;;;;2.75;1.92;;;12.90;99.90;;;;;;5066911;28;20075;-66
2023/05/20 06:15:41;;;;;;;6.65;2.05;;;13.00;99.90;;;;;;5063171;28;20064;-67
2023/05/20 06:18:07;;;;;;;4.18;2.20;;;12.90;99.90;;;;;;5042084;28;20457;-67
2023/05/20 06:20:33;;;;;;;3.83;1.90;;;;;;;;;;5062151;28;20078;-67
2023/05/20 06:22:59;;;;;;;4.28;2.30;;;;;;;;;;5069835;28;20041;-66
2023/05/20 06:25:24;;;;;;;3.35;1.60;;;13.20;99.90;;;;;;5053561;28;20078;-66
2023/05/20 06:27:50;;;;;;;4.15;1.98;;;13.60;99.90;;;;;;5058056;28;20072;-66
2023/05/20 06:30:16;;;;;;;4.22;1.80;;;13.80;99.90;;;;;;5052500;28;20033;-67
2023/05/20 06:32:42;;;;;;;2.50;1.73;;;;;;;;;;5053353;28;20093;-67
2023/05/20 06:35:09;;;;;;;2.75;1.65;;;13.80;99.90;;;;;;5064005;28;20043;-66
2023/05/20 06:37:34;;;;;;;5.43;2.47;;;13.90;99.90;;;;;;5059366;28;20412;-68
2023/05/20 06:40:00;;;;;;;3.97;1.55;;;;;;;;;;5053238;28;20051;-65
2023/05/20 06:42:26;;;;;;;5.07;1.83;;;;;;;;;;5051957;28;20067;-66
2023/05/20 06:44:52;;;;;;;2.53;1.60;;;;;;;;;;5051826;28;20041;-67
2023/05/20 06:47:18;;;;;;;5.78;1.60;;;;;;;;;;5063429;28;20037;-66
2023/05/20 06:49:44;;;;;;;3.72;1.77;;;;;;;;;;5051732;28;20041;-66
2023/05/20 06:52:10;;;;;;;4.82;1.70;;;14.90;99.90;;;;;;5050258;28;20099;-66
2023/05/20 06:54:40;;;;;;;3.25;1.80;;;14.80;99.90;;;;;;5055812;28;20032;-67
2023/05/20 06:57:07;;;;;;;3.55;1.63;;;15.00;99.90;;;;;;5050061;28;20068;-66
2023/05/20 06:59:33;;;;;;;5.95;2.72;;;;;;;;;;5050108;28;20429;-67
2023/05/20 07:01:59;;;;;;;5.03;1.85;;;;;;;;;;5055571;28;20162;-67
2023/05/20 07:04:25;;;;;;;2.00;1.52;;;;;;;;;;5066943;28;20438;-67
2023/05/20 07:06:51;;;;;;;3.80;2.22;;;;;;;;;;5071103;28;20037;-67
2023/05/20 07:09:17;;;;;;;3.97;1.50;;;15.40;99.90;;;;;;5063617;28;20479;-67
2023/05/20 07:11:43;;;;;;;4.75;1.77;;;15.30;99.90;;;;;;5060913;28;20193;-67
2023/05/20 07:14:09;;;;;;;3.38;1.60;;;;;;;;;;5064102;28;20067;-67
2023/05/20 07:16:35;;;;;;;2.13;1.42;;;15.30;99.90;;;;;;5052029;28;20071;-67
2023/05/20 07:19:01;;;;;;;5.82;1.48;;;15.50;99.90;;;;;;5050729;28;20032;-66
2023/05/20 07:21:27;;;;;;;3.25;1.55;;;15.60;99.90;;;;;;5059449;28;20045;-67
2023/05/20 07:23:52;;;;;;;2.55;1.35;;;15.70;99.90;;;;;;5060707;28;20044;-66
2023/05/20 07:26:18;;;;;;;2.95;1.45;;;;;;;;;;5063454;28;20044;-67
2023/05/20 07:28:45;;;;;;;3.58;1.33;;;15.80;99.90;;;;;;5061253;28;20051;-67
2023/05/20 07:31:11;;;;;;;2.75;1.42;;;15.80;99.90;;;;;;5067997;28;20411;-67
2023/05/20 07:33:37;;;;;;;5.43;1.55;;;15.70;99.90;;;;;;5052901;28;20127;-66
2023/05/20 07:36:03;;;;;;;3.95;2.17;;;16.00;99.90;;;;;;5072546;28;20048;-67
2023/05/20 07:38:29;;;;;;;1.60;1.38;;;;;;;;;;5074537;28;20041;-67
2023/05/20 07:40:55;;;;;;;2.55;1.40;;;;;;;;;;5071710;28;20048;-67
2023/05/20 07:43:21;;;;;;;3.08;1.45;;;;;;;;;;5071625;28;20040;-67
2023/05/20 07:45:47;;;;;;;2.08;1.55;;;15.80;99.90;;;;;;5073121;28;20040;-67
2023/05/20 07:48:13;;;;;;;2.83;1.35;;;15.90;99.90;;;;;;5071991;28;20040;-67
2023/05/20 07:50:38;;;;;;;1.83;1.30;;;16.00;99.90;;;;;;5072813;28;20082;-66
2023/05/20 07:53:05;;;;;;;3.55;1.50;;;16.20;99.90;;;;;;5073093;28;20098;-66
2023/05/20 07:55:34;;;;;;;2.83;1.30;;;16.40;99.90;;;;;;5072740;28;20044;-66
2023/05/20 07:58:00;;;;;;;3.38;1.35;;;16.40;99.90;;;;;;5074015;28;20051;-67
2023/05/20 08:00:26;;;;;;;3.10;1.63;;;16.50;99.90;;;;;;5073917;28;20036;-66
2023/05/20 08:02:51;;;;;;;3.47;1.52;;;16.50;99.90;;;;;;5072198;28;20040;-67
2023/05/20 08:05:17;;;;;;;3.47;2.03;;;16.80;99.90;;;;;;5070841;28;20443;-67
2023/05/20 08:07:43;;;;;;;5.10;1.58;;;16.70;99.90;;;;;;5073638;28;20072;-67
2023/05/20 08:10:08;;;;;;;3.22;1.27;;;16.70;99.90;;;;;;5073744;28;20439;-67
2023/05/20 08:12:34;;;;;;;2.60;1.20;;;16.70;99.90;;;;;;5073443;28;20055;-67
2023/05/20 08:15:00;;;;;;;4.35;1.90;;;16.90;99.90;;;;;;5073774;28;20040;-67
2023/05/20 08:17:25;;;;;;;2.17;1.25;;;17.00;99.90;;;;;;5073624;28;20032;-68
2023/05/20 08:19:51;;;;;;;3.03;1.55;;;;;;;;;;5073821;28;20036;-67
2023/05/20 08:22:17;;;;;;;2.58;1.40;;;16.90;99.90;;;;;;5070358;28;20041;-67
2023/05/20 08:24:42;;;;;;;5.80;1.30;;;16.90;99.90;;;;;;5072515;28;20106;-67
2023/05/20 08:27:08;;;;;;;3.22;1.25;;;17.40;99.90;;;;;;5073548;28;20040;-67
2023/05/20 08:29:34;;;;;;;3.72;1.35;;;;;;;;;;5071923;28;20041;-66
2023/05/20 08:31:59;;;;;;;2.30;1.25;;;17.30;99.90;;;;;;5073187;28;20037;-67
2023/05/20 08:34:25;;;;;;;2.25;1.40;;;17.10;99.90;;;;;;5073421;28;20036;-67
2023/05/20 08:36:51;;;;;;;4.22;1.50;;;17.30;99.90;;;;;;5073376;28;20029;-67
2023/05/20 08:39:17;;;;;;;4.90;1.52;;;17.40;99.90;;;;;;5070156;28;20036;-67
2023/05/20 08:41:42;;;;;;;6.78;1.40;;;17.50;99.90;;;;;;5072703;28;20047;-67
2023/05/20 08:44:10;;;;;;;5.50;1.50;;;17.60;99.90;;;;;;5073167;28;20047;-67
2023/05/20 08:46:37;;;;;;;6.43;1.70;;;17.40;99.90;;;;;;5071699;28;20049;-67
2023/05/20 08:49:02;;;;;;;5.35;1.92;;;17.60;99.90;;;;;;5072940;28;20430;-67
2023/05/20 08:51:31;;;;;;;3.25;1.58;;;17.40;99.90;;;;;;5072631;28;20115;-67
2023/05/20 08:53:59;;;;;;;3.75;1.70;;;18.30;99.90;;;;;;5073063;28;20063;-67
2023/05/20 08:56:26;;;;;;;5.43;1.70;;;17.50;99.90;;;;;;5053167;28;20170;-67
2023/05/20 08:58:52;;;;;;;2.17;1.30;;;17.70;99.90;;;;;;5071958;28;20090;-67
2023/05/20 09:01:18;;;;;;;2.53;1.35;;;18.00;99.90;;;;;;5071141;28;20037;-65
2023/05/20 09:03:43;;;;;;;2.83;1.40;;;18.10;99.90;;;;;;5072967;28;20419;-67
2023/05/20 09:06:09;;;;;;;4.78;1.70;;;18.20;99.90;;;;;;5071938;28;20033;-67
2023/05/20 09:08:35;;;;;;;4.28;1.48;;;18.20;99.90;;;;;;5071301;28;20557;-67
2023/05/20 09:11:01;;;;;;;2.05;1.40;;;18.10;99.90;;;;;;5072620;28;20028;-67
2023/05/20 09:13:30;;;;;;;3.80;1.70;;;18.10;99.90;;;;;;5071085;28;20032;-67
2023/05/20 09:15:58;;;;;;;1.98;1.10;;;18.30;99.90;;;;;;5070558;28;20044;-66
2023/05/20 09:18:25;;;;;;;2.97;1.13;;;18.30;99.90;;;;;;5071487;28;20097;-67
2023/05/20 09:20:51;;;;;;;6.78;1.67;;;18.40;99.90;;;;;;5072686;28;20052;-67
2023/05/20 09:23:19;;;;;;;4.28;2.03;;;18.20;99.90;;;;;;5072042;28;20052;-67
2023/05/20 09:25:48;;;;;;;4.65;1.45;;;18.30;99.90;;;;;;5071363;28;20067;-66
2023/05/20 09:28:13;;;;;;;5.63;2.38;;;19.00;99.90;;;;;;5070771;28;20041;-67
2023/05/20 09:30:39;;;;;;;5.03;1.75;;;18.50;99.90;;;;;;5072372;28;20412;-67
2023/05/20 09:33:06;;;;;;;6.25;1.58;;;18.50;99.90;;;;;;5068930;28;20450;-67
2023/05/20 09:35:36;;;;;;;4.72;1.52;;;18.80;99.90;;;;;;5072083;28;20071;-67
2023/05/20 09:38:04;;;;;;;4.43;1.42;;;18.70;99.90;;;;;;5072198;28;20063;-67
2023/05/20 09:40:30;;;;;;;3.30;1.77;;;18.70;99.90;;;;;;5071121;28;20058;-66
2023/05/20 09:43:01;;;;;;;4.93;1.65;;;18.60;99.90;;;;;;5071643;28;20243;-67
2023/05/20 09:45:27;;;;;;;7.50;1.98;;;19.60;99.90;;;;;;5072153;28;20123;-67
2023/05/20 09:47:53;;;;;;;6.25;1.95;;;19.10;99.90;;;;;;5070532;28;20053;-67
2023/05/20 09:50:20;;;;;;;4.88;1.60;;;19.10;99.90;;;;;;5070149;28;20515;-67
2023/05/20 09:52:50;;;;;;;8.45;1.77;;;19.10;99.90;;;;;;5070391;28;20040;-67
2023/05/20 09:55:18;;;;;;;5.85;1.95;;;19.10;99.90;;;;;;5071754;28;20044;-68
2023/05/20 09:57:45;;;;;;;5.22;1.70;;;19.20;99.90;;;;;;5071419;28;20047;-67
2023/05/20 10:00:13;;;;;;;3.38;1.70;;;19.80;99.90;;;;;;5071945;28;20056;-67
2023/05/20 10:02:46;;;;;;;7.55;1.95;;;19.10;99.90;;;;;;5071720;28;20123;-67
2023/05/20 10:05:17;;;;;;;3.40;1.50;;;19.10;99.90;;;;;;5070463;28;20492;-67
2023/05/20 10:08:17;;;;;;;2.25;1.52;;;19.00;99.90;;;;;;5053557;28;20046;-67
2023/05/20 10:11:11;;;;;;;3.72;1.83;;;19.40;99.90;;;;;;5051883;28;20041;-67
2023/05/20 10:14:01;;;;;;;3.67;2.03;;;19.30;99.90;;;;;;5050200;28;20045;-67
2023/05/20 10:17:07;;;;;;;2.70;1.65;;;19.30;99.90;;;;;;5057014;28;20075;-67
2023/05/20 10:19:34;;;;;;;5.63;2.10;;;19.50;99.90;;;;;;5070335;28;20048;-67
2023/05/20 10:22:00;;;;;;;1.85;1.40;;;19.50;99.90;;;;;;5068296;28;20442;-67
2023/05/20 10:24:34;;;;;;;4.65;1.52;;;19.50;99.90;;;;;;5071259;28;20165;-67
2023/05/20 10:27:02;;;;;;;10.40;2.25;;;20.60;99.90;;;;;;5071576;28;20041;-67
2023/05/20 10:29:28;;;;;;;3.38;1.73;;;19.20;99.90;;;;;;5053407;28;20080;-67
2023/05/20 10:31:54;;;;;;;7.50;1.92;;;19.40;99.90;;;;;;5071327;28;20104;-67
2023/05/20 10:34:21;;;;;;;3.45;1.55;;;19.90;99.90;;;;;;5071576;28;20067;-67
2023/05/20 10:36:53;;;;;;;5.35;1.55;;;18.90;99.90;;;;;;5070152;28;20084;-68
2023/05/20 10:39:25;;;;;;;5.40;1.48;;;19.00;99.90;;;;;;5069566;28;20083;-67
2023/05/20 10:41:50;;;;;;;3.13;1.50;;;19.00;99.90;;;;;;5071390;28;20475;-67
2023/05/20 10:44:16;;;;;;;7.55;2.08;;;19.30;99.90;;;;;;5069994;28;20318;-67
2023/05/20 10:46:42;;;;;;;2.88;1.67;;;19.30;99.90;;;;;;5069981;28;20044;-67
2023/05/20 10:49:18;;;;;;;7.22;2.10;;;19.30;99.90;;;;;;5071230;28;20037;-68
2023/05/20 10:51:46;;;;;;;3.72;1.90;;;20.10;99.90;;;;;;5070794;28;20496;-67
2023/05/20 10:54:13;;;;;;;4.85;2.05;;;19.00;99.90;;;;;;5070045;28;20066;-67
2023/05/20 10:56:40;;;;;;;4.53;1.98;;;18.90;99.90;;;;;;5068446;28;20166;-67
2023/05/20 10:59:06;;;;;;;4.15;1.90;;;19.30;99.90;;;;;;5071311;28;20454;-67
2023/05/20 11:01:31;;;;;;;4.50;1.90;;;19.50;99.90;;;;;;5069668;28;20056;-68
2023/05/20 11:03:59;;;;;;;4.40;1.77;;;19.20;99.90;;;;;;5069976;28;20403;-68
2023/05/20 11:06:27;;;;;;;9.75;1.92;;;18.80;99.90;;;;;;5071069;28;20044;-67
2023/05/20 11:08:53;;;;;;;4.57;1.80;;;19.00;99.90;;;;;;5069875;28;20051;-67
2023/05/20 11:11:19;;;;;;;4.97;1.83;;;19.10;99.90;;;;;;5070560;28;20028;-65
2023/05/20 11:13:49;;;;;;;3.00;1.70;;;19.40;99.90;;;;;;5068300;28;20515;-67
2023/05/20 11:16:14;;;;;;;2.92;2.17;;;17.50;99.90;;;;;;5069700;28;20040;-67
2023/05/20 11:18:40;;;;;;;4.43;2.28;;;19.40;99.90;;;;;;5070832;28;20105;-67
2023/05/20 11:21:06;;;;;;;3.13;2.15;;;19.10;99.90;;;;;;5070884;28;20038;-67
2023/05/20 11:23:31;;;;;;;5.18;2.03;;;19.50;99.90;;;;;;5069547;28;20675;-67
2023/05/20 11:25:57;;;;;;;4.90;2.30;;;19.50;99.90;;;;;;5069619;28;20414;-67
2023/05/20 11:28:23;;;;;;;5.75;2.25;;;20.00;99.90;;;;;;5072522;28;20044;-67
2023/05/20 11:30:51;;;;;;;9.13;2.50;;;19.30;99.90;;;;;;5074583;28;20037;-67
2023/05/20 11:33:17;;;;;;;7.55;2.40;;;19.00;99.90;;;;;;5071095;28;20054;-66
2023/05/20 11:35:51;;;;;;;5.53;2.50;;;19.40;99.90;;;;;;5056512;28;20043;-66
2023/05/20 11:38:18;;;;;;;9.52;3.30;;;19.80;99.90;;;;;;5074491;28;20127;-67
2023/05/20 11:40:46;;;;;;;4.53;2.30;;;20.40;99.90;;;;;;5073056;28;20573;-67
2023/05/20 11:43:13;;;;;;;5.93;2.63;;;20.30;99.90;;;;;;5072728;28;20064;-67
2023/05/20 11:46:00;;;;;;;4.78;2.40;;;19.90;99.90;;;;;;5074264;28;20040;-67
2023/05/20 11:48:26;;;;;;;7.63;2.95;;;19.00;99.90;;;;;;5073366;28;20129;-66
2023/05/20 11:50:55;;;;;;;8.15;2.50;;;19.40;99.90;;;;;;5073189;28;20123;-67
2023/05/20 11:53:22;;;;;;;8.27;2.50;;;19.80;99.90;;;;;;5074004;28;20037;-68
2023/05/20 11:55:54;;;;;;;9.65;2.50;;;20.20;99.90;;;;;;5056011;28;20048;-67
2023/05/20 11:58:25;;;;;;;6.00;2.50;;;20.00;99.90;;;;;;5072744;28;20071;-67
2023/05/20 12:00:51;;;;;;;6.05;2.85;;;19.90;99.90;;;;;;5074212;28;20056;-67
2023/05/20 12:03:17;;;;;;;8.02;2.78;;;21.70;99.90;;;;;;5072675;28;20040;-67
2023/05/20 12:05:43;;;;;;;11.15;3.08;;;20.10;99.90;;;;;;5067482;28;20040;-67
2023/05/20 12:08:09;;;;;;;3.53;2.25;;;19.80;99.90;;;;;;5073791;28;20446;-67
2023/05/20 12:10:36;;;;;;;5.93;2.72;;;19.70;99.90;;;;;;5072506;28;20119;-67
2023/05/20 12:13:02;;;;;;;5.97;3.17;;;20.20;99.90;;;;;;5073364;28;20536;-67
2023/05/20 12:15:29;;;;;;;5.32;2.42;;;20.60;99.90;;;;;;5072517;28;20036;-68
2023/05/20 12:17:55;;;;;;;5.82;2.50;;;20.60;99.90;;;;;;5072398;28;20158;-67
2023/05/20 12:20:23;;;;;;;7.35;2.78;;;21.20;99.90;;;;;;5071788;28;20108;-67
2023/05/20 12:22:48;;;;;;;4.95;2.42;;;19.90;99.90;;;;;;5073280;28;20515;-67
2023/05/20 12:25:17;;;;;;;6.10;2.78;;;20.20;99.90;;;;;;5072325;28;20040;-67
2023/05/20 12:27:47;;;;;;;4.38;2.65;;;20.50;99.90;;;;;;5071967;28;20503;-68
2023/05/20 12:30:19;;;;;;;5.63;3.25;;;20.40;99.90;;;;;;5073039;28;20033;-67
2023/05/20 12:32:45;;;;;;;6.70;3.03;;;20.10;99.90;;;;;;5071956;28;20076;-67
2023/05/20 12:35:11;;;;;;;3.80;2.47;;;20.10;99.90;;;;;;5073476;28;20037;-67
2023/05/20 12:37:42;;;;;;;7.80;3.03;;;20.00;99.90;;;;;;5070042;28;20044;-67
2023/05/20 12:40:10;;;;;;;6.65;3.13;;;20.50;99.90;;;;;;5073124;28;20041;-67
2023/05/20 12:42:39;;;;;;;4.32;3.08;;;19.90;99.90;;;;;;5072955;28;20044;-67
2023/05/20 12:45:07;;;;;;;5.18;2.88;;;20.10;99.90;;;;;;5072129;28;20068;-67
2023/05/20 12:47:34;;;;;;;5.70;2.60;;;20.30;99.90;;;;;;5071691;28;20037;-67
2023/05/20 12:50:00;;;;;;;6.55;2.97;;;20.20;99.90;;;;;;5072998;28;20050;-67
2023/05/20 12:52:26;;;;;;;6.70;3.42;;;20.20;99.90;;;;;;5072718;28;20132;-67
2023/05/20 12:54:55;;;;;;;7.57;3.55;;;20.80;99.90;;;;;;5071230;28;20086;-67
2023/05/20 12:57:22;;;;;;;6.75;2.80;;;20.50;99.90;;;;;;5072694;28;20071;-67
2023/05/20 12:59:48;;;;;;;4.28;2.75;;;20.50;99.90;;;;;;5071270;28;20048;-67
2023/05/20 13:02:14;;;;;;;6.53;2.95;;;20.40;99.90;;;;;;5054696;28;20135;-67
2023/05/20 13:04:39;;;;;;;5.65;2.60;;;20.60;99.90;;;;;;5072693;28;20062;-67
2023/05/20 13:07:05;;;;;;;7.05;3.22;;;20.50;99.90;;;;;;5072370;28;20037;-67